Etusivu
METAR-TAF:

METAR-TAF

Lentoasemat :

Šarm al-Šaikh, Egypti

Leveyspiiri: 27-58N, Pituuspiiri: 034-23E, korkeus merenpinnasta: 50 m

Tämänhetkinen sää

Tämä raportti tehtiin 1 tunti ja 2 minuuttia sitten, kello 10.00 UTC
Tuuli 14 kn pohjoisesta
Lämpötila 35°C
Kosteus 34%
Ilmanpaine 1008 hPa
Näkyvyys: 6000 m

METAR: HESH 281000Z 36014KT 6000 NSC 35/17 Q1008 NOSIG

Aika: 13:02 (11:02 UTC)

Sääennuste

Tämä raportti tehtiin 6 tuntia ja 2 minuuttia sitten, kello 05.00 UTC
Ennuste voimassa 28. päivästä klo 06 UTC - 29. päivään klo 12 UTC
Tuuli 12 kn pohjoisen/luoteesta
Näkyvyys 10 km tai enemmän
Hajanaisia pilviä 2500 ft:n korkeudessa

TAF: HESH 280500Z 2806/2912 34012KT 9999 SCT025

Säähavainnot ja -ennusteet yli 4000 lentoasemalta (METAR- ja TAF-raportit).

Käytössä olevat sääasemat on merkitty karttaan keltaisilla ja punaisilla pisteillä.

Aseta hiiri pisteen päälle nähdäksesi sääaseman nimen.

Klikkaa sitten nähdäksesi säähavainnot ja -ennusteet.

Kartan vaihtaminen: klikkaa mustalla rastilla varustettuja vihreitä pisteitä, niin voit zoomata sisään; viivalla varustettua vihreää pistettä, niin voit zoomata ulos tai vihreitä nuolia, niin pääset viereisille kartoille.


METAR-TAF: